createdAt,value
2022-10-05T00:03:37.726Z,5.4
2022-10-05T00:05:37.357Z,5.8
2022-10-05T00:07:36.915Z,5.2
2022-10-05T00:09:36.503Z,7.6
2022-10-05T00:11:36.088Z,5.5
2022-10-05T00:13:35.657Z,5.5
2022-10-05T00:15:35.261Z,5.6
2022-10-05T00:17:38.250Z,5.1
2022-10-05T00:19:37.846Z,5.2
2022-10-05T00:21:37.442Z,5
2022-10-05T00:24:38.525Z,5.3
2022-10-05T00:26:38.097Z,5.2
2022-10-05T00:28:37.743Z,4.9
2022-10-05T00:30:40.674Z,5.1
2022-10-05T00:32:40.240Z,4.3
2022-10-05T00:34:39.824Z,5.2
2022-10-05T00:36:39.412Z,5.8
2022-10-05T00:38:38.985Z,5.2
2022-10-05T00:40:38.593Z,4.7
2022-10-05T00:42:38.157Z,4.7
2022-10-05T00:44:41.149Z,4.8
2022-10-05T00:46:40.728Z,5.3
2022-10-05T00:50:39.920Z,5.5
2022-10-05T00:54:39.089Z,5.1
2022-10-05T00:56:38.648Z,4.5
2022-10-05T00:58:41.645Z,5.3
2022-10-05T01:00:41.198Z,4.6
2022-10-05T01:02:40.822Z,4.9
2022-10-05T01:04:40.381Z,5
2022-10-05T01:06:39.979Z,4.9
2022-10-05T01:08:39.559Z,4.5
2022-10-05T01:10:39.103Z,5.2
2022-10-05T01:12:42.103Z,4.9
2022-10-05T01:14:41.701Z,4.7
2022-10-05T01:16:41.327Z,4.2
2022-10-05T01:17:42.778Z,4.3
2022-10-05T01:21:41.938Z,4.6
2022-10-05T01:23:41.461Z,4.9
2022-10-05T01:25:46.023Z,5.1
2022-10-05T01:27:45.581Z,4.3
2022-10-05T01:29:45.193Z,5.2
2022-10-05T01:31:44.853Z,5.3
2022-10-05T01:35:43.917Z,5.1
2022-10-05T01:39:46.491Z,5.5
2022-10-05T01:41:46.091Z,4.6
2022-10-05T01:43:45.682Z,5
2022-10-05T01:45:45.297Z,5.7
2022-10-05T01:47:44.843Z,4.7
2022-10-05T01:49:44.421Z,5.1
2022-10-05T01:51:44.005Z,5.9
2022-10-05T01:53:47.032Z,5.7
2022-10-05T01:55:46.558Z,6.8
2022-10-05T01:57:46.174Z,7.3
2022-10-05T01:59:45.746Z,5.7
2022-10-05T02:01:45.324Z,4.7
2022-10-05T02:03:44.946Z,5.2
2022-10-05T02:05:44.548Z,5.2
2022-10-05T02:07:47.540Z,5.9
2022-10-05T02:09:47.123Z,5.5
2022-10-05T02:11:46.732Z,5.2
2022-10-05T02:16:01.652Z,5.5
2022-10-05T02:18:01.101Z,5.2
2022-10-05T02:20:04.125Z,4.9
2022-10-05T02:22:03.716Z,5.9
2022-10-05T02:24:03.305Z,6.1
2022-10-05T02:26:02.909Z,5.2
2022-10-05T02:28:02.532Z,5.7
2022-10-05T02:30:02.098Z,5.6
2022-10-05T02:32:01.726Z,5.4
2022-10-05T02:34:04.714Z,5.5
2022-10-05T02:36:04.339Z,6.2
2022-10-05T02:38:03.938Z,5.2
2022-10-05T02:46:02.445Z,6.5
2022-10-05T02:48:05.386Z,5.6
2022-10-05T02:50:04.975Z,6
2022-10-05T02:52:04.605Z,6.7
2022-10-05T02:54:04.208Z,5.4
2022-10-05T02:56:03.846Z,5.9
2022-10-05T02:58:03.447Z,6.2
2022-10-05T03:00:03.133Z,6.9
2022-10-05T03:02:06.140Z,5.6
2022-10-05T03:06:05.315Z,6.1
2022-10-05T03:07:06.805Z,5.8
2022-10-05T03:09:06.420Z,5.3
2022-10-05T03:11:06.023Z,5.3
2022-10-05T03:15:08.666Z,6.3
2022-10-05T03:17:08.251Z,6.1
2022-10-05T03:19:07.866Z,6.3
2022-10-05T03:21:07.477Z,6.7
2022-10-05T03:23:07.102Z,6.1
2022-10-05T03:25:06.672Z,6.9
2022-10-05T03:27:06.309Z,6.5
2022-10-05T03:31:08.935Z,7
2022-10-05T03:33:08.539Z,5.8
2022-10-05T03:35:08.122Z,5.1
2022-10-05T03:37:07.728Z,5.4
2022-10-05T03:39:07.343Z,6.3
2022-10-05T03:41:06.939Z,6.7
2022-10-05T03:43:09.980Z,6.4
2022-10-05T03:45:09.575Z,6.4
2022-10-05T03:47:09.168Z,5.7
2022-10-05T03:49:08.854Z,7.5
2022-10-05T03:51:08.399Z,6.2
2022-10-05T03:53:08.015Z,7.2
2022-10-05T03:55:07.619Z,7.6
2022-10-05T03:57:10.635Z,7
2022-10-05T03:59:10.266Z,6.7
2022-10-05T04:02:11.386Z,7
2022-10-05T04:04:10.955Z,6.3
2022-10-05T04:08:10.194Z,6.1
2022-10-05T04:10:13.218Z,6.7
2022-10-05T04:12:12.815Z,8.7
2022-10-05T04:14:12.421Z,7
2022-10-05T04:18:11.639Z,6.4
2022-10-05T04:20:11.259Z,7.2
2022-10-05T04:22:10.839Z,8
2022-10-05T04:24:13.863Z,8.4
2022-10-05T04:26:13.471Z,6.8
2022-10-05T04:28:13.172Z,6.7
2022-10-05T04:30:12.680Z,7.3
2022-10-05T04:32:12.312Z,7.8
2022-10-05T04:34:11.907Z,6.2
2022-10-05T04:36:11.531Z,6.7
2022-10-05T04:40:14.135Z,6.3
2022-10-05T04:42:13.704Z,6.9
2022-10-05T04:48:12.588Z,7.1
2022-10-05T04:50:12.204Z,6.1
2022-10-05T04:52:15.220Z,5.9
2022-10-05T04:54:14.849Z,6.5
2022-10-05T04:57:15.959Z,6.4
2022-10-05T04:59:15.571Z,6.3
2022-10-05T05:01:15.243Z,5.7
2022-10-05T05:03:14.778Z,6.3
2022-10-05T05:05:17.824Z,5.7
2022-10-05T05:07:17.398Z,6.6
2022-10-05T05:09:16.984Z,5.9
2022-10-05T05:11:19.989Z,5.3
2022-10-05T05:13:16.183Z,5.4
2022-10-05T05:19:18.405Z,5.1
2022-10-05T05:21:17.982Z,5.5
2022-10-05T05:23:17.601Z,6.9
2022-10-05T05:25:17.210Z,5.7
2022-10-05T05:27:16.776Z,6
2022-10-05T05:29:16.379Z,5.4
2022-10-05T05:31:16.094Z,5.4
2022-10-05T05:35:18.600Z,6.2
2022-10-05T05:37:18.180Z,6.1
2022-10-05T05:43:16.970Z,5.2
2022-10-05T05:45:16.587Z,4.7
2022-10-05T05:47:19.651Z,5.2
2022-10-05T05:49:19.199Z,5
2022-10-05T05:51:18.789Z,6.7
2022-10-05T05:53:34.165Z,5.6
2022-10-05T05:55:33.780Z,5
2022-10-05T05:57:33.343Z,5.3
2022-10-05T05:59:36.336Z,5.9
2022-10-05T06:01:38.494Z,6.1
2022-10-05T06:03:35.574Z,6.1
2022-10-05T06:05:35.174Z,6.4
2022-10-05T06:07:34.788Z,5.7
2022-10-05T06:09:34.374Z,5.7
2022-10-05T06:11:33.955Z,5.6
2022-10-05T06:15:36.630Z,5.7
2022-10-05T06:17:36.198Z,6.8
2022-10-05T06:19:35.787Z,6.3
2022-10-05T06:21:35.384Z,5.8
2022-10-05T06:23:34.990Z,5.9
2022-10-05T06:25:34.595Z,5.6
2022-10-05T06:27:37.588Z,5.9
2022-10-05T06:29:37.209Z,5.9
2022-10-05T06:31:36.904Z,6.6
2022-10-05T06:35:36.036Z,5.6
2022-10-05T06:37:35.652Z,5.6
2022-10-05T06:39:35.284Z,6.5
2022-10-05T06:41:38.278Z,5.5
2022-10-05T06:43:37.886Z,5.9
2022-10-05T06:45:37.501Z,5
2022-10-05T06:46:38.954Z,5.6
2022-10-05T06:48:38.581Z,5.7
2022-10-05T06:50:38.207Z,6.7
2022-10-05T06:52:37.811Z,5.7
2022-10-05T06:54:40.834Z,6.5
2022-10-05T06:56:40.421Z,5.3
2022-10-05T06:58:40.011Z,5.5
2022-10-05T07:00:39.622Z,5.8
2022-10-05T07:02:39.307Z,5.2
2022-10-05T07:04:38.881Z,5.2
2022-10-05T07:06:38.482Z,6.5
2022-10-05T07:08:43.048Z,5.5
2022-10-05T07:10:42.609Z,5.7
2022-10-05T07:12:42.220Z,5.1
2022-10-05T07:14:41.828Z,4.2
2022-10-05T07:16:41.545Z,4
2022-10-05T07:18:41.034Z,4.9
2022-10-05T07:20:41.988Z,5
2022-10-05T07:22:43.655Z,4.2
2022-10-05T07:24:43.287Z,4
2022-10-05T07:26:42.884Z,3.9
2022-10-05T07:28:42.566Z,3.7
2022-10-05T07:30:42.140Z,3.7
2022-10-05T07:32:41.687Z,3.5
2022-10-05T07:36:44.798Z,3.8
2022-10-05T07:38:43.902Z,3.2
2022-10-05T07:40:43.523Z,4.1
2022-10-05T07:41:45.016Z,3.7
2022-10-05T07:45:44.235Z,3.8
2022-10-05T07:47:43.781Z,3.5
2022-10-05T07:49:46.797Z,3.6
2022-10-05T07:51:46.392Z,3.3
2022-10-05T07:57:45.182Z,3.5
2022-10-05T07:59:44.762Z,3.2
2022-10-05T08:01:44.429Z,3.1
2022-10-05T08:09:46.733Z,3.5
2022-10-05T08:11:46.507Z,3.1
2022-10-05T08:15:45.522Z,4.5
2022-10-05T08:17:48.473Z,3.1
2022-10-05T08:19:48.071Z,4
2022-10-05T08:21:47.889Z,3.1
2022-10-05T08:25:46.818Z,3
2022-10-05T08:27:46.371Z,2.9
2022-10-05T08:29:45.939Z,2.8
2022-10-05T08:35:48.123Z,2.5
2022-10-05T08:36:53.735Z,3.5
2022-10-05T08:40:48.757Z,3.2
2022-10-05T08:46:50.919Z,3.2
2022-10-05T08:50:50.089Z,4.3
2022-10-05T08:58:51.770Z,3.2
2022-10-05T09:04:50.454Z,3
2022-10-05T09:10:49.163Z,3.7
2022-10-05T09:12:52.106Z,2.9
2022-10-05T09:15:01.566Z,2.9
2022-10-05T09:16:51.239Z,2.4
2022-10-05T09:18:50.792Z,2.5
2022-10-05T09:20:50.372Z,3.1
2022-10-05T09:22:49.935Z,2.5
2022-10-05T09:24:49.483Z,2.8
2022-10-05T09:26:52.466Z,3.2
2022-10-05T09:28:52.006Z,2.4
2022-10-05T09:30:51.595Z,2.3
2022-10-05T09:33:07.087Z,2.6
2022-10-05T09:35:06.625Z,2.1
2022-10-05T09:37:06.186Z,2.2
2022-10-05T09:39:09.149Z,2.9
2022-10-05T09:41:08.707Z,2
2022-10-05T09:43:08.232Z,2.7
2022-10-05T09:45:07.805Z,2.8
2022-10-05T09:47:07.398Z,2.7
2022-10-05T09:51:06.455Z,2.5
2022-10-05T09:53:09.393Z,2.7
2022-10-05T09:55:08.932Z,2.3
2022-10-05T09:57:08.448Z,2.7
2022-10-05T09:59:08.033Z,2.6
2022-10-05T10:01:09.842Z,2.6
2022-10-05T10:03:07.120Z,2.4
2022-10-05T10:05:06.654Z,2.3
2022-10-05T10:07:09.577Z,3.4
2022-10-05T10:13:08.235Z,3.2
2022-10-05T10:15:07.720Z,2.8
2022-10-05T10:17:07.231Z,2.9
2022-10-05T10:19:06.763Z,3.2
2022-10-05T10:21:09.711Z,2.5
2022-10-05T10:23:09.227Z,3.1
2022-10-05T10:25:08.772Z,3
2022-10-05T10:26:10.208Z,3.2
2022-10-05T10:30:09.344Z,2.8
2022-10-05T10:32:08.800Z,3.2
2022-10-05T10:34:11.733Z,3.2
2022-10-05T10:40:10.291Z,2.3
2022-10-05T10:42:09.814Z,2.6
2022-10-05T10:44:09.317Z,3.1
2022-10-05T10:46:08.831Z,3.1
2022-10-05T10:48:11.538Z,3.1
2022-10-05T10:50:11.055Z,2.8
2022-10-05T10:52:10.523Z,3
2022-10-05T10:54:09.901Z,2.7
2022-10-05T10:56:09.411Z,2.7
2022-10-05T10:58:12.409Z,2.7
2022-10-05T11:00:08.387Z,2.9
2022-10-05T11:02:11.385Z,3.5
2022-10-05T11:04:10.769Z,2.3
2022-10-05T11:06:10.301Z,2.9
2022-10-05T11:16:12.531Z,2.9
2022-10-05T11:18:10.613Z,2.8
2022-10-05T11:20:10.102Z,2.6
2022-10-05T11:21:11.533Z,2.6
2022-10-05T11:25:10.492Z,3.2
2022-10-05T11:29:12.914Z,3
2022-10-05T11:31:12.413Z,3
2022-10-05T11:33:11.887Z,2.6
2022-10-05T11:35:11.342Z,1.8
2022-10-05T11:43:12.710Z,2.6
2022-10-05T11:45:12.185Z,2.9
2022-10-05T11:47:11.702Z,2.3
2022-10-05T11:49:11.175Z,2.5
2022-10-05T11:51:10.654Z,2.4
2022-10-05T11:53:10.156Z,2.4
2022-10-05T11:55:11.432Z,2.6
2022-10-05T11:57:12.590Z,2.2
2022-10-05T11:59:12.043Z,2.3
2022-10-05T12:01:11.533Z,2.3
2022-10-05T12:03:11.111Z,2.2
2022-10-05T12:05:10.491Z,3
2022-10-05T12:07:09.958Z,3.1
2022-10-05T12:09:09.424Z,2.3
2022-10-05T12:11:12.343Z,2.6
2022-10-05T12:13:11.845Z,2.9
2022-10-05T12:16:12.837Z,1.8
2022-10-05T12:18:12.246Z,2.5
2022-10-05T12:20:11.714Z,2.9
2022-10-05T12:26:13.542Z,2.9
2022-10-05T12:28:13.077Z,2.9
2022-10-05T12:30:12.552Z,2.9
2022-10-05T12:34:11.458Z,2.1
2022-10-05T12:36:10.927Z,2.2
2022-10-05T12:38:14.578Z,2.4
2022-10-05T12:40:14.081Z,2.1
2022-10-05T12:42:13.534Z,2.2
2022-10-05T12:44:13.012Z,2.9
2022-10-05T12:46:12.533Z,2.9
2022-10-05T12:48:11.908Z,2.5
2022-10-05T12:50:11.352Z,2.6
2022-10-05T12:52:14.153Z,2.9
2022-10-05T12:54:13.560Z,2.2
2022-10-05T12:56:14.782Z,2.4
2022-10-05T12:58:13.700Z,2.2
2022-10-05T13:00:13.200Z,2
2022-10-05T13:02:12.559Z,2.1
2022-10-05T13:04:11.929Z,3.2
2022-10-05T13:06:15.197Z,2.5
2022-10-05T13:08:14.158Z,3.4
2022-10-05T13:10:13.562Z,2.7
2022-10-05T13:12:32.486Z,2.2
2022-10-05T13:14:31.803Z,2.2
2022-10-05T13:18:33.865Z,3.1
2022-10-05T13:20:33.181Z,2.4
2022-10-05T13:22:32.485Z,2.1
2022-10-05T13:24:31.851Z,2.3
2022-10-05T13:30:29.731Z,2.1
2022-10-05T13:32:32.387Z,2.2
2022-10-05T13:34:31.657Z,1.6
2022-10-05T13:40:29.525Z,2.1
2022-10-05T13:42:28.816Z,2
2022-10-05T13:44:28.118Z,2.3
2022-10-05T13:46:30.812Z,2.3
2022-10-05T13:48:30.039Z,1.8
2022-10-05T13:58:26.526Z,2.1
2022-10-05T14:04:27.764Z,2.7
2022-10-05T14:05:29.103Z,2.2
2022-10-05T14:07:28.409Z,2
2022-10-05T14:09:27.691Z,2.3
2022-10-05T14:11:27.010Z,2.6
2022-10-05T14:13:29.640Z,2.4
2022-10-05T14:15:28.968Z,3.1
2022-10-05T14:17:32.104Z,2.4
2022-10-05T14:19:27.676Z,2
2022-10-05T14:23:26.503Z,2.5
2022-10-05T14:25:25.821Z,2.2
2022-10-05T14:27:28.549Z,2.3
2022-10-05T14:29:27.856Z,2.1
2022-10-05T14:33:26.596Z,2.1
2022-10-05T14:35:25.901Z,2
2022-10-05T14:37:25.255Z,1.5
2022-10-05T14:39:24.662Z,2.1
2022-10-05T14:41:27.504Z,2.1
2022-10-05T14:43:26.720Z,2.2
2022-10-05T14:45:26.206Z,1.9
2022-10-05T14:47:25.357Z,1.6
2022-10-05T14:49:24.678Z,1.9
2022-10-05T14:51:24.023Z,1.8
2022-10-05T14:53:23.420Z,1.7
2022-10-05T14:55:26.085Z,2.1
2022-10-05T14:57:25.526Z,1.9
2022-10-05T14:59:24.952Z,2.7
2022-10-05T15:00:26.268Z,1.5
2022-10-05T15:02:25.646Z,1.7
2022-10-05T15:08:27.175Z,1.6
2022-10-05T15:10:26.465Z,2
2022-10-05T15:12:25.777Z,2.6
2022-10-05T15:16:24.423Z,2.4
2022-10-05T15:18:27.165Z,2.4
2022-10-05T15:20:22.988Z,2.4
2022-10-05T15:22:25.650Z,2.4
2022-10-05T15:24:25.059Z,2.6
2022-10-05T15:26:24.472Z,2.6
2022-10-05T15:28:23.840Z,2.3
2022-10-05T15:30:23.105Z,3.9
2022-10-05T15:32:22.526Z,2.4
2022-10-05T15:34:21.952Z,2.2
2022-10-05T15:38:25.607Z,1.9
2022-10-05T15:42:23.136Z,2.5
2022-10-05T15:44:22.551Z,2.3
2022-10-05T15:46:22.104Z,2.7
2022-10-05T15:48:21.719Z,3.3
2022-10-05T15:50:24.234Z,2.3
2022-10-05T15:52:23.665Z,3.5
2022-10-05T15:54:23.120Z,3.9
2022-10-05T15:55:24.561Z,3.7
2022-10-05T15:57:23.985Z,2.4
2022-10-05T15:59:23.471Z,2.8
2022-10-05T16:01:23.045Z,2.4
2022-10-05T16:03:25.824Z,4.7
2022-10-05T16:05:25.300Z,2.7
2022-10-05T16:07:24.792Z,1.9
2022-10-05T16:09:24.245Z,2.6
2022-10-05T16:11:23.725Z,3.3
2022-10-05T16:13:23.183Z,3.2
2022-10-05T16:15:22.664Z,2.5
2022-10-05T16:17:25.573Z,2.9
2022-10-05T16:19:25.044Z,2
2022-10-05T16:23:23.998Z,2.3
2022-10-05T16:25:23.646Z,3
2022-10-05T16:27:22.958Z,2.7
2022-10-05T16:37:23.861Z,1.9
2022-10-05T16:39:23.343Z,2.2
2022-10-05T16:41:22.855Z,2.6
2022-10-05T16:43:22.339Z,1.2
2022-10-05T16:45:25.453Z,1.9
2022-10-05T16:47:27.461Z,1.8
2022-10-05T16:49:24.245Z,1.8
2022-10-05T16:51:45.337Z,2
2022-10-05T16:53:44.859Z,1.9
2022-10-05T16:55:44.378Z,2
2022-10-05T16:57:47.281Z,2.8
2022-10-05T16:59:46.769Z,3.7
2022-10-05T17:01:46.296Z,3.8
2022-10-05T17:03:45.765Z,1.9
2022-10-05T17:05:45.282Z,2.8
2022-10-05T17:07:44.783Z,3.5
2022-10-05T17:09:44.303Z,2.1
2022-10-05T17:11:47.275Z,4.9
2022-10-05T17:15:46.465Z,2.5
2022-10-05T17:17:45.791Z,4.1
2022-10-05T17:19:45.291Z,5
2022-10-05T17:21:44.807Z,4.8
2022-10-05T17:23:44.346Z,3.5
2022-10-05T17:25:47.256Z,2.6
2022-10-05T17:27:50.688Z,6.8
2022-10-05T17:29:46.272Z,2.9
2022-10-05T17:31:45.807Z,1.5
2022-10-05T17:33:45.293Z,2.8
2022-10-05T17:35:44.783Z,1.6
2022-10-05T17:37:44.291Z,2.9
2022-10-05T17:43:46.185Z,3.5
2022-10-05T17:44:47.684Z,2.1
2022-10-05T17:46:47.146Z,2.4
2022-10-05T17:48:46.663Z,3
2022-10-05T17:50:46.130Z,3.1
2022-10-05T17:56:48.019Z,3.6
2022-10-05T17:58:47.501Z,2.2
2022-10-05T18:00:46.978Z,3.2
2022-10-05T18:02:46.504Z,3.9
2022-10-05T18:04:45.963Z,2.7
2022-10-05T18:06:48.866Z,3.5
2022-10-05T18:14:46.826Z,2.2
2022-10-05T18:16:46.328Z,2.6
2022-10-05T18:18:45.831Z,2.8
2022-10-05T18:20:48.751Z,3
2022-10-05T18:22:48.227Z,2
2022-10-05T18:24:47.689Z,2.3
2022-10-05T18:26:47.218Z,2.9
2022-10-05T18:28:46.761Z,2.6
2022-10-05T18:30:46.298Z,2.2
2022-10-05T18:32:45.703Z,3.1
2022-10-05T18:34:48.635Z,1.9
2022-10-05T18:36:48.166Z,2.5
2022-10-05T18:38:47.635Z,2
2022-10-05T18:47:52.048Z,2.3
2022-10-05T18:49:51.515Z,1.8
2022-10-05T18:51:52.096Z,1.9
2022-10-05T18:55:50.049Z,3.6
2022-10-05T18:57:49.536Z,2.2
2022-10-05T18:59:49.055Z,1.7
2022-10-05T19:01:52.055Z,2.8
2022-10-05T19:03:51.504Z,3.3
2022-10-05T19:05:50.998Z,2.2
2022-10-05T19:07:50.520Z,2.5
2022-10-05T19:09:50.038Z,1.7
2022-10-05T19:11:49.559Z,2.6
2022-10-05T19:15:52.074Z,3.3
2022-10-05T19:17:51.479Z,2.5
2022-10-05T19:19:50.995Z,1.8
2022-10-05T19:21:50.525Z,2.7
2022-10-05T19:27:54.419Z,2.5
2022-10-05T19:29:51.985Z,3.2
2022-10-05T19:31:51.512Z,1.7
2022-10-05T19:33:51.036Z,2.4
2022-10-05T19:36:52.003Z,2.3
2022-10-05T19:38:51.509Z,1.7
2022-10-05T19:40:51.024Z,1.6
2022-10-05T19:42:53.971Z,2.4
2022-10-05T19:46:53.058Z,3.6
2022-10-05T19:48:52.484Z,4.9
2022-10-05T19:50:52.016Z,3.7
2022-10-05T19:52:51.635Z,7.9
2022-10-05T19:54:51.030Z,12.4
2022-10-05T19:56:53.947Z,6.1
2022-10-05T19:58:53.472Z,1.9
2022-10-05T20:00:53.001Z,1.9
2022-10-05T20:02:52.603Z,2.4
2022-10-05T20:04:52.022Z,2.7
2022-10-05T20:06:51.519Z,2.7
2022-10-05T20:12:53.496Z,1.9
2022-10-05T20:14:57.205Z,1.8
2022-10-05T20:16:52.500Z,2.2
2022-10-05T20:18:52.045Z,1.6
2022-10-05T20:20:51.553Z,1.7
2022-10-05T20:24:54.009Z,0.9
2022-10-05T20:26:53.492Z,1
2022-10-05T20:31:14.752Z,1.3
2022-10-05T20:33:14.134Z,1.3
2022-10-05T20:35:13.643Z,1.3
2022-10-05T20:37:16.673Z,1.3
2022-10-05T20:39:16.221Z,1.3
2022-10-05T20:41:15.768Z,1.7
2022-10-05T20:43:15.328Z,1.4
2022-10-05T20:45:15.078Z,1.1
2022-10-05T20:47:14.506Z,1.8
2022-10-05T20:49:14.073Z,1.7
2022-10-05T20:51:17.066Z,1.3
2022-10-05T20:53:17.252Z,1.8
2022-10-05T20:55:16.269Z,1.2
2022-10-05T21:01:15.189Z,1.3
2022-10-05T21:03:14.716Z,1.6
2022-10-05T21:05:17.788Z,1.1
2022-10-05T21:07:17.351Z,1.6
2022-10-05T21:09:16.936Z,1.5
2022-10-05T21:11:16.571Z,1.2
2022-10-05T21:13:16.165Z,1.5
2022-10-05T21:15:15.770Z,1.3
2022-10-05T21:19:18.410Z,1.2
2022-10-05T21:21:18.033Z,1.2
2022-10-05T21:23:17.643Z,1.1
2022-10-05T21:24:19.170Z,1.7
2022-10-05T21:34:20.725Z,1.2
2022-10-05T21:38:20.001Z,1.5
2022-10-05T21:42:19.270Z,1.2
2022-10-05T21:44:18.872Z,1.3
2022-10-05T21:46:21.925Z,1.4
2022-10-05T21:48:21.543Z,1.5
2022-10-05T21:50:21.284Z,1.3
2022-10-05T21:52:20.867Z,1.2
2022-10-05T21:54:20.490Z,1.5
2022-10-05T21:58:19.806Z,1.4
2022-10-05T22:00:22.890Z,1.3
2022-10-05T22:02:22.477Z,1.1
2022-10-05T22:04:22.101Z,1.3
2022-10-05T22:06:25.302Z,1.5
2022-10-05T22:08:21.391Z,0.9
2022-10-05T22:10:21.068Z,1.4
2022-10-05T22:12:20.695Z,1.2
2022-10-05T22:14:23.749Z,1.7
2022-10-05T22:16:23.513Z,1.4
2022-10-05T22:23:23.891Z,1.2
2022-10-05T22:25:23.558Z,1.2
2022-10-05T22:27:26.581Z,1.1
2022-10-05T22:29:26.251Z,1.3
2022-10-05T22:31:25.966Z,0.9
2022-10-05T22:33:25.560Z,1.2
2022-10-05T22:35:25.206Z,0.8
2022-10-05T22:37:24.864Z,1.1
2022-10-05T22:39:24.508Z,1.8
2022-10-05T22:41:30.088Z,1.1
2022-10-05T22:43:27.206Z,0.8
2022-10-05T22:45:32.416Z,1
2022-10-05T22:47:26.486Z,0.9
2022-10-05T22:49:26.132Z,1
2022-10-05T22:51:25.981Z,1
2022-10-05T22:53:26.118Z,1.3
2022-10-05T22:55:28.517Z,1.7
2022-10-05T22:57:28.151Z,1.4
2022-10-05T22:59:27.815Z,1.9
2022-10-05T23:01:27.559Z,1.8
2022-10-05T23:03:27.116Z,1.1
2022-10-05T23:05:26.800Z,1.7
2022-10-05T23:11:29.178Z,1.5
2022-10-05T23:13:28.837Z,1.5
2022-10-05T23:14:30.366Z,1.9
2022-10-05T23:16:30.119Z,1.3
2022-10-05T23:18:30.241Z,1.5
2022-10-05T23:20:29.353Z,2.2
2022-10-05T23:22:32.429Z,1.5
2022-10-05T23:24:32.091Z,1.5
2022-10-05T23:28:32.064Z,1.8
2022-10-05T23:30:31.169Z,2.4
2022-10-05T23:36:33.538Z,1.4
2022-10-05T23:42:32.531Z,2.1
2022-10-05T23:44:32.180Z,1
2022-10-05T23:46:31.822Z,1.4
2022-10-05T23:48:31.835Z,1.7
2022-10-05T23:50:34.624Z,2.5
2022-10-05T23:52:34.274Z,2.2
2022-10-05T23:54:33.938Z,1.4
2022-10-05T23:56:33.612Z,1.9
2022-10-05T23:58:33.266Z,1.7
